SBNT weather

Augusto Severo Airport
Natal, Rio Grande do Norte, Brazil

Public forecast

Using degrees Celsius for public forecast. Weather courtesy of forecast.io.

METAR (pilot weather report)

Retrieved 2019/07/19 12:00 UTC (11 minutes ago):

SBNT 191200Z 16010KT 9999 VCSH SCT015 BKN018 26/21 Q1018

TAF (pilot weather forecast)

Retrieved 2019/07/19 12:00 UTC (11 minutes ago):

TAF SBNT 191000Z 1912/1924 18008KT 8000 SCT015 TX29/1917Z TN24/1923Z BECMG 1912/1914 16011KT SCT020 FEW030TCU BECMG 1914/1916 16014KT BECMG 1922/1924 SCT020 RMK PFD